Addis Ababa, Ethiopia

8:11 PM EAT on December 04, 2016 (GMT +0300)
Bole International | | Change Station

Elev 7726 ft 8.98 °N, 38.80 °E | Updated 11 minutes ago

Clear
Clear
54 °F
Feels Like 54 °F
N
12
Wind Variable Wind from NNE
Gusts mph

Today
High -- | Low -- °F
--% Chance of Precip.
Yesterday
High -- | Low -- °F
Precip. -- in
Pressure 30.39 in
Visibility -9999.0 miles
Clouds
Dew Point 19 °F
Humidity 26%
Rainfall 0.00 in
Snow Depth Not available.
6:26 AM 6:04 PM
Waxing Crescent, 24% visible
METAR HAAB 041700Z 03010KT C A V O K 12/M07 Q1029
Pressure 30.39 in
Visibility -9999.0 miles
Clouds
Dew Point 19 °F
Humidity 26%
Rainfall 0.00 in
Snow Depth Not available.
6:26 AM 6:04 PM
Waxing Crescent, 24% visible
METAR HAAB 041700Z 03010KT C A V O K 12/M07 Q1029

10-Day Weather Forecast

No radar image for this location.
×

Almanac

Astronomy

Dec. 04, 2016 Rise Set
Actual Time
Civil Twilight
Nautical Twilight
Astronomical Twilight
Moon
Length of Visible Light
Length of Day
Tomorrow will be .
, % of the Moon is Illuminated

Today's Extremes

Country Highs Country Lows

Community

WunderPhotos

Upload Photos

1,955,631 photos uploaded!

WunderBlog® & News

Nearby

Air Quality

  Air Quality AQ Index Pollutant
Not available.

Snow Depth

Station Depth Elevation

Earthquake Activity

City Distance Mag. Time & Date
Minimum magnitude displayed is 2.5.

Coastal Water Temperatures

Place Temperature

Stations

Nearby Weather Stations

Station Location Temp. Windchill Dew Point Humidity Wind Precip. Elev Updated Type